Аэропорт: Борисполь. Киев

ICAO: UKBB

METAR:
2018/11/19 10:00
UKBB 191000Z 04004MPS CAVOK M00/M04 Q1026 R88/190050 NOSIG
METAR:
2018/11/19 06:25
TAF UKBB 190501Z 1906/2006 04004G09MPS 6000 SCT010 OVC020 TXM01/1912Z TNM05/2005Z 
      TEMPO 1915/2006 06005G10MPS 2000 -SN BR OVC007